createdAt,value
2019-05-12T14:07:29.945Z,1.52
2019-05-12T14:09:56.084Z,1.60
2019-05-12T14:12:22.008Z,1.17
2019-05-12T14:14:48.140Z,1.52
2019-05-12T14:17:14.935Z,1.80
2019-05-12T14:19:40.874Z,1.55
2019-05-12T14:22:07.254Z,3.50
2019-05-12T14:24:42.206Z,3.10
2019-05-12T14:27:01.162Z,2.85
2019-05-12T14:29:30.522Z,3.17
2019-05-12T14:32:01.917Z,2.72
2019-05-12T14:34:23.641Z,2.27
2019-05-12T14:36:49.751Z,2.50
2019-05-12T14:39:15.778Z,2.67
2019-05-12T14:41:45.766Z,2.85
2019-05-12T14:44:09.959Z,1.82
2019-05-12T14:46:40.056Z,1.40
2019-05-12T14:49:03.858Z,1.70
2019-05-12T14:51:29.959Z,2.25
2019-05-12T14:53:55.963Z,2.15
2019-05-12T14:56:23.333Z,1.98
2019-05-12T14:58:50.179Z,2.52
2019-05-12T15:01:17.766Z,1.87
2019-05-12T15:03:47.820Z,2.42
2019-05-12T15:06:13.981Z,2.10
2019-05-12T15:08:40.464Z,2.92
2019-05-12T15:11:06.602Z,2.02
2019-05-12T15:13:34.301Z,3.20
2019-05-12T15:16:00.519Z,2.80
2019-05-12T15:18:26.637Z,3.00
2019-05-12T15:20:54.467Z,1.87
2019-05-12T15:23:23.963Z,1.95
2019-05-12T15:25:50.905Z,4.12
2019-05-12T15:28:16.435Z,3.00
2019-05-12T15:30:43.631Z,2.52
2019-05-12T15:33:09.976Z,2.98
2019-05-12T15:35:35.887Z,3.80
2019-05-12T15:38:03.702Z,2.08
2019-05-12T15:40:30.082Z,4.37
2019-05-12T15:43:00.420Z,5.00
2019-05-12T15:45:24.187Z,3.98
2019-05-12T15:47:50.295Z,3.47
2019-05-12T15:50:16.412Z,2.20
2019-05-12T15:52:45.382Z,4.45
2019-05-12T15:55:10.784Z,2.52
2019-05-12T15:57:36.891Z,5.85
2019-05-12T16:00:07.683Z,3.02
2019-05-12T16:02:34.048Z,2.35
2019-05-12T16:05:00.407Z,2.20
2019-05-12T16:07:29.460Z,3.00
2019-05-12T16:09:54.764Z,2.65
2019-05-12T16:12:24.351Z,3.00
2019-05-12T16:14:49.247Z,2.95
2019-05-12T16:17:18.494Z,3.33
2019-05-12T16:19:43.904Z,3.47
2019-05-12T16:22:10.030Z,4.40
2019-05-12T16:24:36.129Z,4.15
2019-05-12T16:27:03.613Z,3.50
2019-05-12T16:29:29.878Z,4.10
2019-05-12T16:31:55.891Z,6.05
2019-05-12T16:34:22.003Z,5.22
2019-05-12T16:36:52.066Z,5.85
2019-05-12T16:39:16.055Z,7.00
2019-05-12T16:41:43.857Z,5.67
2019-05-12T16:44:17.620Z,7.28
2019-05-12T16:46:38.106Z,7.47
2019-05-12T16:49:04.217Z,7.17
2019-05-12T16:51:30.223Z,9.20
2019-05-12T16:53:56.228Z,11.45
2019-05-12T16:56:28.073Z,8.40
2019-05-12T16:58:50.331Z,9.50
2019-05-12T17:01:19.508Z,9.65
2019-05-12T17:03:44.611Z,7.40
2019-05-12T17:06:11.322Z,6.72
2019-05-12T17:08:37.329Z,7.33
2019-05-12T17:11:23.365Z,8.03
2019-05-12T17:13:33.598Z,7.28
2019-05-12T17:16:00.265Z,6.60
2019-05-12T17:18:26.362Z,7.72
2019-05-12T17:20:54.584Z,6.25
2019-05-12T17:23:20.288Z,6.15
2019-05-12T17:25:46.402Z,5.33
2019-05-12T17:28:13.254Z,6.03
2019-05-12T17:30:39.437Z,5.03
2019-05-12T17:33:05.591Z,7.87
2019-05-12T17:35:48.610Z,7.55
2019-05-12T17:38:19.738Z,5.72
2019-05-12T17:40:44.094Z,4.10
2019-05-12T17:43:11.978Z,3.95
2019-05-12T17:45:38.184Z,5.30
2019-05-12T17:48:07.714Z,4.75
2019-05-12T17:50:34.422Z,8.08
2019-05-12T17:53:00.680Z,5.15
2019-05-12T17:55:26.885Z,4.53
2019-05-12T17:57:56.174Z,4.87
2019-05-12T18:00:23.336Z,6.22
2019-05-12T18:02:49.548Z,5.72
2019-05-12T18:05:17.314Z,8.43
2019-05-12T18:07:44.322Z,6.30
2019-05-12T18:10:13.450Z,5.53
2019-05-12T18:12:44.767Z,5.33
2019-05-12T18:15:08.416Z,6.30
2019-05-12T18:17:39.009Z,6.70
2019-05-12T18:20:05.113Z,6.53
2019-05-12T18:22:31.230Z,11.38
2019-05-12T18:24:57.436Z,13.38
2019-05-12T18:27:23.450Z,7.60
2019-05-12T18:29:49.565Z,7.50
2019-05-12T18:32:15.690Z,6.65
2019-05-12T18:34:44.315Z,6.45
2019-05-12T18:37:09.733Z,6.78
2019-05-12T18:39:35.845Z,6.37
2019-05-12T18:42:03.525Z,7.85
2019-05-12T18:44:31.636Z,5.70
2019-05-12T18:46:57.759Z,6.62
2019-05-12T18:49:24.042Z,6.60
2019-05-12T18:51:55.227Z,6.35
2019-05-12T18:54:18.195Z,8.88
2019-05-12T18:56:44.298Z,6.90
2019-05-12T18:59:11.792Z,8.40
2019-05-12T19:01:38.531Z,7.62
2019-05-12T19:04:04.644Z,9.50
2019-05-12T19:06:30.653Z,8.68
2019-05-12T19:08:56.687Z,13.18
2019-05-12T19:11:31.310Z,9.98
2019-05-12T19:13:52.332Z,8.90
2019-05-12T19:16:18.818Z,10.95
2019-05-12T19:18:47.816Z,10.05
2019-05-12T19:21:16.565Z,8.75
2019-05-12T19:23:40.828Z,10.20
2019-05-12T19:26:06.832Z,8.08
2019-05-12T19:28:34.228Z,9.60
2019-05-12T19:31:05.082Z,9.03
2019-05-12T19:33:28.374Z,9.20
2019-05-12T19:35:59.860Z,9.18
2019-05-12T19:38:23.973Z,9.00
2019-05-12T19:40:58.693Z,10.28
2019-05-12T19:43:18.235Z,9.68
2019-05-12T19:45:44.335Z,9.25
2019-05-12T19:48:23.352Z,9.40
2019-05-12T19:50:38.385Z,9.93
2019-05-12T19:53:04.394Z,9.48
2019-05-12T19:55:30.401Z,9.90
2019-05-12T19:57:56.453Z,10.53
2019-05-12T20:00:22.691Z,10.45
2019-05-12T20:02:48.731Z,9.95
2019-05-12T20:05:17.611Z,9.43
2019-05-12T20:07:44.664Z,10.25
2019-05-12T20:10:13.853Z,11.22
2019-05-12T20:12:39.426Z,9.97
2019-05-12T20:15:05.735Z,10.53
2019-05-12T20:17:33.925Z,10.38
2019-05-12T20:19:59.798Z,9.38
2019-05-12T20:22:25.703Z,9.63
2019-05-12T20:24:53.681Z,10.72
2019-05-12T20:27:21.884Z,10.25
2019-05-12T20:29:47.344Z,9.53
2019-05-12T20:32:13.932Z,9.45
2019-05-12T20:34:49.215Z,9.20
2019-05-12T20:37:13.334Z,10.53
2019-05-12T20:39:36.202Z,10.03
2019-05-12T20:42:03.135Z,9.73
2019-05-12T20:44:30.153Z,9.80
2019-05-12T20:47:01.346Z,9.65
2019-05-12T20:49:24.330Z,9.90
2019-05-12T20:51:54.855Z,8.88
2019-05-12T20:54:18.370Z,9.88
2019-05-12T20:56:44.538Z,8.08
2019-05-12T20:59:13.734Z,9.70
2019-05-12T21:01:38.715Z,8.93
2019-05-12T21:04:07.473Z,8.93
2019-05-12T21:06:41.304Z,9.30
2019-05-12T21:09:00.526Z,9.40
2019-05-12T21:11:26.667Z,9.33
2019-05-12T21:13:54.541Z,9.08
2019-05-12T21:16:31.147Z,8.00
2019-05-12T21:18:55.830Z,8.28
2019-05-12T21:21:16.667Z,7.45
2019-05-12T21:23:45.801Z,8.45
2019-05-12T21:26:10.521Z,7.90
2019-05-12T21:28:37.038Z,7.30
2019-05-12T21:31:04.435Z,7.58
2019-05-12T21:33:31.296Z,8.43
2019-05-12T21:35:58.288Z,8.65
2019-05-12T21:38:29.384Z,7.85
2019-05-12T21:40:52.215Z,7.80
2019-05-12T21:43:18.218Z,6.90
2019-05-12T21:45:44.224Z,7.45
2019-05-12T21:48:15.051Z,7.62
2019-05-12T21:50:38.478Z,7.15
2019-05-12T21:53:04.823Z,7.47
2019-05-12T21:55:33.994Z,6.60
2019-05-12T21:58:01.571Z,9.03
2019-05-12T22:00:38.140Z,6.58
2019-05-12T22:03:08.204Z,6.35
2019-05-12T22:05:48.064Z,6.62
2019-05-12T22:08:03.200Z,7.37
2019-05-12T22:10:30.949Z,6.85
2019-05-12T22:13:00.576Z,6.03
2019-05-12T22:15:28.579Z,6.45
2019-05-12T22:17:59.604Z,7.20
2019-05-12T22:20:27.008Z,6.53
2019-05-12T22:22:53.040Z,5.50
2019-05-12T22:25:19.037Z,6.60
2019-05-12T22:27:45.157Z,6.12
2019-05-12T22:30:13.383Z,6.30
2019-05-12T22:32:39.408Z,5.97
2019-05-12T22:35:05.819Z,5.55
2019-05-12T22:37:34.870Z,6.00
2019-05-12T22:39:59.669Z,6.70
2019-05-12T22:42:25.791Z,5.47
2019-05-12T22:44:53.033Z,6.67
2019-05-12T22:47:19.609Z,7.03
2019-05-12T22:49:45.612Z,6.10
2019-05-12T22:52:13.575Z,6.20
2019-05-12T22:54:40.471Z,8.30
2019-05-12T22:57:07.664Z,6.90
2019-05-12T22:59:40.373Z,6.45
2019-05-12T23:02:04.188Z,6.87
2019-05-12T23:04:35.422Z,5.85
2019-05-12T23:06:57.508Z,6.85
2019-05-12T23:09:28.030Z,6.25
2019-05-12T23:11:53.607Z,6.45
2019-05-12T23:14:22.376Z,7.00
2019-05-12T23:16:47.430Z,5.53
2019-05-12T23:19:15.128Z,5.28
2019-05-12T23:21:41.313Z,4.85
2019-05-12T23:24:07.420Z,5.15
2019-05-12T23:26:41.727Z,5.20
2019-05-12T23:29:01.351Z,5.62
2019-05-12T23:31:30.354Z,5.50
2019-05-12T23:33:56.663Z,4.97
2019-05-12T23:36:35.242Z,4.80
2019-05-12T23:38:52.019Z,4.70
2019-05-12T23:41:18.607Z,4.67
2019-05-12T23:43:44.723Z,4.87
2019-05-12T23:46:10.758Z,4.22
2019-05-12T23:48:36.659Z,4.97
2019-05-12T23:51:03.871Z,4.53
2019-05-12T23:53:30.188Z,5.50
2019-05-12T23:55:56.201Z,4.50
2019-05-12T23:58:23.623Z,5.05
